sensor_id;sensor_type;location;lat;lon;timestamp;pressure;altitude;pressure_sealevel;temperature;humidity
40245;BME280;25963;42.694;23.600;2023-06-26T00:00:33;94962.19;;;20.27;100.00
40245;BME280;25963;42.694;23.600;2023-06-26T00:02:59;94953.63;;;20.25;100.00
40245;BME280;25963;42.694;23.600;2023-06-26T00:05:25;94954.09;;;20.32;100.00
40245;BME280;25963;42.694;23.600;2023-06-26T00:07:53;94956.22;;;20.35;100.00
40245;BME280;25963;42.694;23.600;2023-06-26T00:10:18;94953.81;;;20.34;100.00
40245;BME280;25963;42.694;23.600;2023-06-26T00:12:43;94944.41;;;20.36;100.00
40245;BME280;25963;42.694;23.600;2023-06-26T00:15:09;94956.78;;;20.32;100.00
40245;BME280;25963;42.694;23.600;2023-06-26T00:17:34;94959.56;;;20.46;100.00
40245;BME280;25963;42.694;23.600;2023-06-26T00:20:02;94954.09;;;20.32;100.00
40245;BME280;25963;42.694;23.600;2023-06-26T00:22:28;94948.94;;;20.41;100.00
40245;BME280;25963;42.694;23.600;2023-06-26T00:24:54;94956.44;;;20.39;100.00
40245;BME280;25963;42.694;23.600;2023-06-26T00:27:20;94960.53;;;20.31;100.00
40245;BME280;25963;42.694;23.600;2023-06-26T00:29:45;94940.00;;;20.21;100.00
40245;BME280;25963;42.694;23.600;2023-06-26T00:32:11;94946.06;;;20.32;100.00
40245;BME280;25963;42.694;23.600;2023-06-26T00:34:36;94955.13;;;20.36;100.00
40245;BME280;25963;42.694;23.600;2023-06-26T00:37:02;94938.59;;;20.29;100.00
40245;BME280;25963;42.694;23.600;2023-06-26T00:39:27;94953.75;;;20.39;100.00
40245;BME280;25963;42.694;23.600;2023-06-26T00:41:53;94948.94;;;20.41;100.00
40245;BME280;25963;42.694;23.600;2023-06-26T00:44:21;94943.75;;;20.49;100.00
40245;BME280;25963;42.694;23.600;2023-06-26T00:46:47;94926.00;;;20.29;100.00
40245;BME280;25963;42.694;23.600;2023-06-26T00:49:13;94941.16;;;20.39;100.00
40245;BME280;25963;42.694;23.600;2023-06-26T00:51:38;94940.03;;;20.45;100.00
40245;BME280;25963;42.694;23.600;2023-06-26T00:54:04;94930.75;;;20.38;100.00
40245;BME280;25963;42.694;23.600;2023-06-26T00:56:31;94934.19;;;20.43;100.00
40245;BME280;25963;42.694;23.600;2023-06-26T00:58:56;94940.56;;;20.47;100.00
40245;BME280;25963;42.694;23.600;2023-06-26T01:01:22;94940.03;;;20.45;100.00
40245;BME280;25963;42.694;23.600;2023-06-26T01:03:51;94940.59;;;20.42;100.00
40245;BME280;25963;42.694;23.600;2023-06-26T01:06:20;94935.75;;;20.44;100.00
40245;BME280;25963;42.694;23.600;2023-06-26T01:08:47;94935.50;;;20.17;100.00
40245;BME280;25963;42.694;23.600;2023-06-26T01:11:13;94936.16;;;20.03;100.00
40245;BME280;25963;42.694;23.600;2023-06-26T01:13:41;94933.72;;;20.07;100.00
40245;BME280;25963;42.694;23.600;2023-06-26T01:16:08;94930.88;;;19.98;100.00
40245;BME280;25963;42.694;23.600;2023-06-26T01:18:35;94928.22;;;19.93;100.00
40245;BME280;25963;42.694;23.600;2023-06-26T01:21:03;94925.88;;;19.87;100.00
40245;BME280;25963;42.694;23.600;2023-06-26T01:23:34;94929.59;;;19.91;100.00
40245;BME280;25963;42.694;23.600;2023-06-26T01:28:34;94915.56;;;19.75;100.00
40245;BME280;25963;42.694;23.600;2023-06-26T01:31:01;94933.41;;;19.84;100.00
40245;BME280;25963;42.694;23.600;2023-06-26T01:33:27;94934.19;;;19.85;100.00
40245;BME280;25963;42.694;23.600;2023-06-26T01:35:53;94917.44;;;19.74;100.00
40245;BME280;25963;42.694;23.600;2023-06-26T01:38:20;94927.97;;;19.55;100.00
40245;BME280;25963;42.694;23.600;2023-06-26T01:40:46;94938.63;;;19.60;100.00
40245;BME280;25963;42.694;23.600;2023-06-26T01:43:37;94934.53;;;19.34;100.00
40245;BME280;25963;42.694;23.600;2023-06-26T01:46:23;94907.06;;;19.23;100.00
40245;BME280;25963;42.694;23.600;2023-06-26T01:49:15;94927.28;;;19.39;100.00
40245;BME280;25963;42.694;23.600;2023-06-26T01:52:07;94918.97;;;19.41;100.00
40245;BME280;25963;42.694;23.600;2023-06-26T01:54:39;94914.72;;;19.40;100.00
40245;BME280;25963;42.694;23.600;2023-06-26T01:57:08;94910.91;;;19.46;100.00
40245;BME280;25963;42.694;23.600;2023-06-26T01:59:35;94914.13;;;19.48;100.00
40245;BME280;25963;42.694;23.600;2023-06-26T02:02:01;94910.38;;;19.49;100.00
40245;BME280;25963;42.694;23.600;2023-06-26T02:04:27;94920.28;;;19.44;100.00
40245;BME280;25963;42.694;23.600;2023-06-26T02:06:52;94922.72;;;19.45;100.00
40245;BME280;25963;42.694;23.600;2023-06-26T02:09:18;94908.28;;;19.41;100.00
40245;BME280;25963;42.694;23.600;2023-06-26T02:11:43;94919.81;;;19.36;100.00
40245;BME280;25963;42.694;23.600;2023-06-26T02:14:09;94913.22;;;19.24;100.00
40245;BME280;25963;42.694;23.600;2023-06-26T02:16:36;94919.94;;;19.21;100.00
40245;BME280;25963;42.694;23.600;2023-06-26T02:19:01;94917.50;;;19.20;100.00
40245;BME280;25963;42.694;23.600;2023-06-26T02:21:26;94904.72;;;19.11;100.00
40245;BME280;25963;42.694;23.600;2023-06-26T02:23:52;94911.00;;;18.97;100.00
40245;BME280;25963;42.694;23.600;2023-06-26T02:26:18;94915.97;;;19.08;100.00
40245;BME280;25963;42.694;23.600;2023-06-26T02:28:43;94889.88;;;18.95;100.00
40245;BME280;25963;42.694;23.600;2023-06-26T02:31:08;94914.03;;;18.64;100.00
40245;BME280;25963;42.694;23.600;2023-06-26T02:33:34;94908.72;;;18.59;100.00
40245;BME280;25963;42.694;23.600;2023-06-26T02:35:59;94916.25;;;18.47;100.00
40245;BME280;25963;42.694;23.600;2023-06-26T02:38:25;94917.25;;;18.61;100.00
40245;BME280;25963;42.694;23.600;2023-06-26T02:40:50;94912.47;;;18.58;100.00
40245;BME280;25963;42.694;23.600;2023-06-26T02:43:16;94917.28;;;18.56;100.00
40245;BME280;25963;42.694;23.600;2023-06-26T02:45:41;94919.16;;;18.56;100.00
40245;BME280;25963;42.694;23.600;2023-06-26T02:48:07;94925.84;;;18.53;100.00
40245;BME280;25963;42.694;23.600;2023-06-26T02:50:32;94921.56;;;18.52;100.00
40245;BME280;25963;42.694;23.600;2023-06-26T02:52:58;94921.28;;;18.54;100.00
40245;BME280;25963;42.694;23.600;2023-06-26T02:55:24;94920.50;;;18.53;100.00
40245;BME280;25963;42.694;23.600;2023-06-26T02:57:50;94923.66;;;18.60;100.00
40245;BME280;25963;42.694;23.600;2023-06-26T03:00:16;94911.69;;;18.58;100.00
40245;BME280;25963;42.694;23.600;2023-06-26T03:02:41;94900.22;;;18.52;100.00
40245;BME280;25963;42.694;23.600;2023-06-26T03:07:42;94893.78;;;18.48;100.00
40245;BME280;25963;42.694;23.600;2023-06-26T03:10:08;94908.72;;;18.59;100.00
40245;BME280;25963;42.694;23.600;2023-06-26T03:12:33;94922.84;;;18.65;100.00
40245;BME280;25963;42.694;23.600;2023-06-26T03:14:59;94919.09;;;18.66;100.00
40245;BME280;25963;42.694;23.600;2023-06-26T03:17:24;94915.88;;;18.69;100.00
40245;BME280;25963;42.694;23.600;2023-06-26T03:19:49;94914.81;;;18.70;100.00
40245;BME280;25963;42.694;23.600;2023-06-26T03:22:15;94921.75;;;18.71;100.00
40245;BME280;25963;42.694;23.600;2023-06-26T03:24:40;94920.44;;;18.74;100.00
40245;BME280;25963;42.694;23.600;2023-06-26T03:27:06;94902.03;;;18.62;100.00
40245;BME280;25963;42.694;23.600;2023-06-26T03:29:32;94921.25;;;18.74;100.00
40245;BME280;25963;42.694;23.600;2023-06-26T03:31:57;94936.19;;;18.75;100.00
40245;BME280;25963;42.694;23.600;2023-06-26T03:34:22;94926.59;;;18.74;100.00
40245;BME280;25963;42.694;23.600;2023-06-26T03:36:48;94920.38;;;18.84;100.00
40245;BME280;25963;42.694;23.600;2023-06-26T03:39:13;94916.63;;;18.90;100.00
40245;BME280;25963;42.694;23.600;2023-06-26T03:41:39;94917.69;;;18.89;100.00
40245;BME280;25963;42.694;23.600;2023-06-26T03:44:04;94935.00;;;19.02;100.00
40245;BME280;25963;42.694;23.600;2023-06-26T03:46:30;94919.50;;;19.04;100.00
40245;BME280;25963;42.694;23.600;2023-06-26T03:48:55;94930.16;;;19.09;100.00
40245;BME280;25963;42.694;23.600;2023-06-26T03:51:20;94925.59;;;19.14;100.00
40245;BME280;25963;42.694;23.600;2023-06-26T03:53:46;94908.00;;;19.03;100.00
40245;BME280;25963;42.694;23.600;2023-06-26T03:56:11;94922.59;;;19.21;100.00
40245;BME280;25963;42.694;23.600;2023-06-26T03:58:37;94921.50;;;19.22;100.00
40245;BME280;25963;42.694;23.600;2023-06-26T04:01:02;94922.81;;;19.30;100.00
40245;BME280;25963;42.694;23.600;2023-06-26T04:03:28;94929.19;;;19.34;100.00
40245;BME280;25963;42.694;23.600;2023-06-26T04:05:54;94932.25;;;19.56;100.00
40245;BME280;25963;42.694;23.600;2023-06-26T04:08:19;94938.31;;;19.72;100.00
40245;BME280;25963;42.694;23.600;2023-06-26T04:10:45;94930.63;;;19.66;100.00
40245;BME280;25963;42.694;23.600;2023-06-26T04:13:13;94925.19;;;19.71;100.00
40245;BME280;25963;42.694;23.600;2023-06-26T04:15:39;94926.94;;;19.86;100.00
40245;BME280;25963;42.694;23.600;2023-06-26T04:18:04;94917.94;;;20.05;100.00
40245;BME280;25963;42.694;23.600;2023-06-26T04:20:30;94926.97;;;20.15;100.00
40245;BME280;25963;42.694;23.600;2023-06-26T04:22:55;94920.00;;;20.14;100.00
40245;BME280;25963;42.694;23.600;2023-06-26T04:25:21;94930.38;;;20.20;100.00
40245;BME280;25963;42.694;23.600;2023-06-26T04:27:46;94928.47;;;20.26;100.00
40245;BME280;25963;42.694;23.600;2023-06-26T04:30:12;94923.56;;;20.33;100.00
40245;BME280;25963;42.694;23.600;2023-06-26T04:32:38;94926.63;;;20.45;100.00
40245;BME280;25963;42.694;23.600;2023-06-26T04:35:03;94930.56;;;20.58;100.00
40245;BME280;25963;42.694;23.600;2023-06-26T04:37:29;94925.63;;;20.65;100.00
40245;BME280;25963;42.694;23.600;2023-06-26T04:39:55;94926.59;;;20.50;100.00
40245;BME280;25963;42.694;23.600;2023-06-26T04:44:55;94921.56;;;20.44;100.00
40245;BME280;25963;42.694;23.600;2023-06-26T04:47:21;94913.19;;;20.50;100.00
40245;BME280;25963;42.694;23.600;2023-06-26T04:49:46;94928.47;;;20.50;100.00
40245;BME280;25963;42.694;23.600;2023-06-26T04:52:12;94931.41;;;20.48;100.00
40245;BME280;25963;42.694;23.600;2023-06-26T04:54:40;94916.78;;;20.41;100.00
40245;BME280;25963;42.694;23.600;2023-06-26T04:57:06;94921.78;;;20.47;100.00
40245;BME280;25963;42.694;23.600;2023-06-26T04:59:34;94929.81;;;20.52;100.00
40245;BME280;25963;42.694;23.600;2023-06-26T05:01:59;94937.28;;;20.56;100.00
40245;BME280;25963;42.694;23.600;2023-06-26T05:04:24;94929.94;;;20.37;100.00
40245;BME280;25963;42.694;23.600;2023-06-26T05:06:50;94950.06;;;20.35;100.00
40245;BME280;25963;42.694;23.600;2023-06-26T05:09:15;94947.38;;;20.35;100.00
40245;BME280;25963;42.694;23.600;2023-06-26T05:11:41;94941.47;;;20.38;100.00
40245;BME280;25963;42.694;23.600;2023-06-26T05:14:06;94934.72;;;20.16;100.00
40245;BME280;25963;42.694;23.600;2023-06-26T05:16:35;94948.97;;;20.36;100.00
40245;BME280;25963;42.694;23.600;2023-06-26T05:19:00;94949.66;;;20.22;100.00
40245;BME280;25963;42.694;23.600;2023-06-26T05:21:26;94946.75;;;20.43;100.00
40245;BME280;25963;42.694;23.600;2023-06-26T05:23:55;94947.53;;;20.19;100.00
40245;BME280;25963;42.694;23.600;2023-06-26T05:26:21;94954.72;;;20.24;100.00
40245;BME280;25963;42.694;23.600;2023-06-26T05:28:47;94942.25;;;20.38;100.00
40245;BME280;25963;42.694;23.600;2023-06-26T05:31:15;94952.25;;;20.57;100.00
40245;BME280;25963;42.694;23.600;2023-06-26T05:33:43;94946.22;;;20.70;100.00
40245;BME280;25963;42.694;23.600;2023-06-26T05:36:09;94934.63;;;20.74;100.00
40245;BME280;25963;42.694;23.600;2023-06-26T05:38:35;94954.19;;;20.75;100.00
40245;BME280;25963;42.694;23.600;2023-06-26T05:41:00;94953.81;;;20.63;100.00
40245;BME280;25963;42.694;23.600;2023-06-26T05:43:26;94943.09;;;20.63;100.00
40245;BME280;25963;42.694;23.600;2023-06-26T05:45:51;94949.94;;;20.74;100.00
40245;BME280;25963;42.694;23.600;2023-06-26T05:48:17;94954.94;;;20.81;100.00
40245;BME280;25963;42.694;23.600;2023-06-26T05:50:43;94945.72;;;20.68;100.00
40245;BME280;25963;42.694;23.600;2023-06-26T05:53:09;94950.94;;;20.78;100.00
40245;BME280;25963;42.694;23.600;2023-06-26T05:55:34;94956.94;;;20.70;100.00
40245;BME280;25963;42.694;23.600;2023-06-26T05:58:02;94967.59;;;20.75;100.00
40245;BME280;25963;42.694;23.600;2023-06-26T06:00:28;94942.94;;;20.73;100.00
40245;BME280;25963;42.694;23.600;2023-06-26T06:02:54;94970.47;;;21.03;100.00
40245;BME280;25963;42.694;23.600;2023-06-26T06:05:20;94962.16;;;21.04;100.00
40245;BME280;25963;42.694;23.600;2023-06-26T06:07:46;94972.09;;;21.23;100.00
40245;BME280;25963;42.694;23.600;2023-06-26T06:10:12;94963.84;;;21.19;100.00
40245;BME280;25963;42.694;23.600;2023-06-26T06:12:37;94940.28;;;21.16;100.00
40245;BME280;25963;42.694;23.600;2023-06-26T06:15:03;94972.78;;;21.33;100.00
40245;BME280;25963;42.694;23.600;2023-06-26T06:17:29;94951.19;;;21.43;100.00
40245;BME280;25963;42.694;23.600;2023-06-26T06:19:54;94956.97;;;21.51;100.00
40245;BME280;25963;42.694;23.600;2023-06-26T06:22:20;94966.78;;;21.60;100.00
40245;BME280;25963;42.694;23.600;2023-06-26T06:24:48;94964.13;;;21.74;100.00
40245;BME280;25963;42.694;23.600;2023-06-26T06:27:14;94956.78;;;21.99;100.00
40245;BME280;25963;42.694;23.600;2023-06-26T06:29:39;94957.53;;;21.85;100.00
40245;BME280;25963;42.694;23.600;2023-06-26T06:32:06;94966.00;;;22.25;100.00
40245;BME280;25963;42.694;23.600;2023-06-26T06:34:31;94961.06;;;22.46;100.00
40245;BME280;25963;42.694;23.600;2023-06-26T06:36:57;94951.91;;;22.61;100.00
40245;BME280;25963;42.694;23.600;2023-06-26T06:39:22;94956.00;;;22.72;100.00
40245;BME280;25963;42.694;23.600;2023-06-26T06:41:47;94951.84;;;23.08;100.00
40245;BME280;25963;42.694;23.600;2023-06-26T06:44:13;94956.78;;;23.78;100.00
40245;BME280;25963;42.694;23.600;2023-06-26T06:46:38;94936.72;;;24.15;100.00
40245;BME280;25963;42.694;23.600;2023-06-26T06:49:04;94954.28;;;24.67;100.00
40245;BME280;25963;42.694;23.600;2023-06-26T06:51:29;94950.72;;;24.97;100.00
40245;BME280;25963;42.694;23.600;2023-06-26T06:53:54;94948.63;;;25.34;100.00
40245;BME280;25963;42.694;23.600;2023-06-26T06:56:20;94940.84;;;25.76;100.00
40245;BME280;25963;42.694;23.600;2023-06-26T06:58:45;94951.09;;;26.26;97.87
40245;BME280;25963;42.694;23.600;2023-06-26T07:01:12;94941.53;;;26.37;99.61
40245;BME280;25963;42.694;23.600;2023-06-26T07:03:38;94937.69;;;26.47;93.30
40245;BME280;25963;42.694;23.600;2023-06-26T07:06:04;94947.31;;;26.18;96.87
40245;BME280;25963;42.694;23.600;2023-06-26T07:08:30;94944.03;;;25.61;91.88
40245;BME280;25963;42.694;23.600;2023-06-26T07:10:55;94946.72;;;25.35;94.16
40245;BME280;25963;42.694;23.600;2023-06-26T07:13:24;94942.97;;;25.04;96.23
40245;BME280;25963;42.694;23.600;2023-06-26T07:15:49;94949.47;;;25.03;97.70
40245;BME280;25963;42.694;23.600;2023-06-26T07:18:15;94942.91;;;25.44;99.24
40245;BME280;25963;42.694;23.600;2023-06-26T07:20:41;94944.91;;;26.26;92.22
40245;BME280;25963;42.694;23.600;2023-06-26T07:23:07;94934.50;;;26.62;92.15
40245;BME280;25963;42.694;23.600;2023-06-26T07:25:34;94946.59;;;26.56;85.63
40245;BME280;25963;42.694;23.600;2023-06-26T07:27:59;94952.81;;;26.57;82.28
40245;BME280;25963;42.694;23.600;2023-06-26T07:30:25;94940.50;;;26.68;86.15
40245;BME280;25963;42.694;23.600;2023-06-26T07:32:50;94950.63;;;26.80;86.77
40245;BME280;25963;42.694;23.600;2023-06-26T07:35:16;94947.97;;;26.71;83.22
40245;BME280;25963;42.694;23.600;2023-06-26T07:37:41;94950.63;;;26.80;82.50
40245;BME280;25963;42.694;23.600;2023-06-26T07:40:08;94943.22;;;26.68;83.49
40245;BME280;25963;42.694;23.600;2023-06-26T07:42:33;94938.53;;;26.77;87.14
40245;BME280;25963;42.694;23.600;2023-06-26T07:44:59;94938.03;;;26.54;82.47
40245;BME280;25963;42.694;23.600;2023-06-26T07:47:24;94937.69;;;26.56;87.20
40245;BME280;25963;42.694;23.600;2023-06-26T07:49:50;94944.09;;;26.34;85.91
40245;BME280;25963;42.694;23.600;2023-06-26T07:52:15;94940.81;;;26.11;87.79
40245;BME280;25963;42.694;23.600;2023-06-26T07:54:41;94948.44;;;26.17;88.03
40245;BME280;25963;42.694;23.600;2023-06-26T07:57:07;94955.91;;;26.21;94.81
40245;BME280;25963;42.694;23.600;2023-06-26T07:59:34;94946.84;;;26.81;95.53
40245;BME280;25963;42.694;23.600;2023-06-26T08:02:00;94948.41;;;27.12;81.83
40245;BME280;25963;42.694;23.600;2023-06-26T08:04:27;94949.19;;;27.21;86.07
40245;BME280;25963;42.694;23.600;2023-06-26T08:06:56;94956.50;;;27.50;85.15
40245;BME280;25963;42.694;23.600;2023-06-26T08:09:24;94953.06;;;27.83;85.27
40245;BME280;25963;42.694;23.600;2023-06-26T08:11:50;94943.31;;;28.03;75.79
40245;BME280;25963;42.694;23.600;2023-06-26T08:14:16;94956.53;;;28.37;78.20
40245;BME280;25963;42.694;23.600;2023-06-26T08:16:43;94943.50;;;28.64;83.61
40245;BME280;25963;42.694;23.600;2023-06-26T08:19:14;94927.09;;;28.60;77.86
40245;BME280;25963;42.694;23.600;2023-06-26T08:21:41;94933.25;;;29.06;74.63
40245;BME280;25963;42.694;23.600;2023-06-26T08:24:06;94921.50;;;29.02;75.51
40245;BME280;25963;42.694;23.600;2023-06-26T08:26:32;94934.78;;;28.83;78.02
40245;BME280;25963;42.694;23.600;2023-06-26T08:28:57;94944.84;;;28.70;74.27
40245;BME280;25963;42.694;23.600;2023-06-26T08:31:23;94938.28;;;28.83;73.30
40245;BME280;25963;42.694;23.600;2023-06-26T08:33:48;94926.66;;;29.32;73.96
40245;BME280;25963;42.694;23.600;2023-06-26T08:36:14;94921.31;;;29.35;72.83
40245;BME280;25963;42.694;23.600;2023-06-26T08:38:39;94926.63;;;29.44;68.61
40245;BME280;25963;42.694;23.600;2023-06-26T08:41:09;94940.19;;;29.69;67.34
40245;BME280;25963;42.694;23.600;2023-06-26T08:43:35;94932.72;;;29.94;72.34
40245;BME280;25963;42.694;23.600;2023-06-26T08:46:02;94937.47;;;29.69;66.96
40245;BME280;25963;42.694;23.600;2023-06-26T08:48:29;94938.78;;;29.10;72.68
40245;BME280;25963;42.694;23.600;2023-06-26T08:50:57;94936.69;;;29.56;66.38
40245;BME280;25963;42.694;23.600;2023-06-26T08:56:10;94927.88;;;29.87;58.97
40245;BME280;25963;42.694;23.600;2023-06-26T08:58:38;94927.84;;;29.59;66.61
40245;BME280;25963;42.694;23.600;2023-06-26T09:01:04;94928.44;;;29.28;62.64
40245;BME280;25963;42.694;23.600;2023-06-26T09:03:30;94921.56;;;29.18;68.20
40245;BME280;25963;42.694;23.600;2023-06-26T09:05:56;94918.56;;;29.88;69.57
40245;BME280;25963;42.694;23.600;2023-06-26T09:08:22;94912.59;;;30.11;65.78
40245;BME280;25963;42.694;23.600;2023-06-26T09:10:47;94922.97;;;30.21;59.75
40245;BME280;25963;42.694;23.600;2023-06-26T09:13:13;94909.06;;;30.38;72.18
40245;BME280;25963;42.694;23.600;2023-06-26T09:15:42;94916.41;;;30.22;64.69
40245;BME280;25963;42.694;23.600;2023-06-26T09:18:07;94918.22;;;30.18;64.79
40245;BME280;25963;42.694;23.600;2023-06-26T09:20:33;94913.59;;;29.50;66.81
40245;BME280;25963;42.694;23.600;2023-06-26T09:22:59;94896.28;;;29.42;73.03
40245;BME280;25963;42.694;23.600;2023-06-26T09:25:25;94915.72;;;29.69;69.48
40245;BME280;25963;42.694;23.600;2023-06-26T09:27:51;94903.34;;;29.99;65.99
40245;BME280;25963;42.694;23.600;2023-06-26T09:30:17;94915.13;;;30.03;65.68
40245;BME280;25963;42.694;23.600;2023-06-26T09:32:44;94908.38;;;29.85;65.20
40245;BME280;25963;42.694;23.600;2023-06-26T09:35:10;94911.81;;;29.42;68.86
40245;BME280;25963;42.694;23.600;2023-06-26T09:37:36;94914.22;;;28.94;68.74
40245;BME280;25963;42.694;23.600;2023-06-26T09:40:02;94907.09;;;29.14;71.65
40245;BME280;25963;42.694;23.600;2023-06-26T09:42:29;94908.44;;;29.20;66.86
40245;BME280;25963;42.694;23.600;2023-06-26T09:44:54;94909.56;;;29.19;70.28
40245;BME280;25963;42.694;23.600;2023-06-26T09:47:20;94904.03;;;29.16;72.03
40245;BME280;25963;42.694;23.600;2023-06-26T09:49:47;94906.06;;;29.19;71.32
40245;BME280;25963;42.694;23.600;2023-06-26T09:52:17;94905.28;;;29.58;71.35
40245;BME280;25963;42.694;23.600;2023-06-26T09:54:43;94909.88;;;30.11;68.71
40245;BME280;25963;42.694;23.600;2023-06-26T09:57:15;94906.97;;;30.63;65.76
40245;BME280;25963;42.694;23.600;2023-06-26T09:59:41;94892.56;;;30.95;55.85
40245;BME280;25963;42.694;23.600;2023-06-26T10:02:07;94913.97;;;30.96;56.56
40245;BME280;25963;42.694;23.600;2023-06-26T10:04:34;94902.66;;;30.46;60.12
40245;BME280;25963;42.694;23.600;2023-06-26T10:07:01;94909.69;;;29.75;61.94
40245;BME280;25963;42.694;23.600;2023-06-26T10:09:29;94903.78;;;29.33;62.85
40245;BME280;25963;42.694;23.600;2023-06-26T10:12:04;94906.50;;;28.59;64.79
40245;BME280;25963;42.694;23.600;2023-06-26T10:14:34;94904.03;;;28.42;66.04
40245;BME280;25963;42.694;23.600;2023-06-26T10:17:01;94904.28;;;28.16;68.68
40245;BME280;25963;42.694;23.600;2023-06-26T10:19:30;94902.69;;;27.82;66.30
40245;BME280;25963;42.694;23.600;2023-06-26T10:21:58;94904.69;;;28.06;77.00
40245;BME280;25963;42.694;23.600;2023-06-26T10:24:24;94894.19;;;28.74;71.32
40245;BME280;25963;42.694;23.600;2023-06-26T10:27:16;94897.72;;;28.17;69.98
40245;BME280;25963;42.694;23.600;2023-06-26T10:29:44;94883.97;;;27.35;72.94
40245;BME280;25963;42.694;23.600;2023-06-26T10:32:12;94896.03;;;26.86;72.82
40245;BME280;25963;42.694;23.600;2023-06-26T10:34:38;94894.41;;;26.47;73.20
40245;BME280;25963;42.694;23.600;2023-06-26T10:37:04;94895.19;;;26.18;73.78
40245;BME280;25963;42.694;23.600;2023-06-26T10:39:49;94896.63;;;26.07;79.88
40245;BME280;25963;42.694;23.600;2023-06-26T10:42:19;94899.97;;;26.04;82.60
40245;BME280;25963;42.694;23.600;2023-06-26T10:44:48;94892.56;;;26.77;84.83
40245;BME280;25963;42.694;23.600;2023-06-26T10:47:32;94886.88;;;27.00;75.25
40245;BME280;25963;42.694;23.600;2023-06-26T10:53:07;94882.59;;;27.83;76.04
40245;BME280;25963;42.694;23.600;2023-06-26T10:55:33;94877.38;;;28.11;74.19
40245;BME280;25963;42.694;23.600;2023-06-26T10:57:58;94877.28;;;28.32;68.25
40245;BME280;25963;42.694;23.600;2023-06-26T11:00:24;94866.06;;;28.66;71.26
40245;BME280;25963;42.694;23.600;2023-06-26T11:02:50;94865.44;;;28.98;67.09
40245;BME280;25963;42.694;23.600;2023-06-26T11:05:32;94859.72;;;29.40;72.25
40245;BME280;25963;42.694;23.600;2023-06-26T11:08:10;94865.78;;;29.89;68.50
40245;BME280;25963;42.694;23.600;2023-06-26T11:10:54;94869.31;;;29.62;64.65
40245;BME280;25963;42.694;23.600;2023-06-26T11:13:21;94869.69;;;29.76;64.96
40245;BME280;25963;42.694;23.600;2023-06-26T11:15:47;94873.25;;;29.92;65.48
40245;BME280;25963;42.694;23.600;2023-06-26T11:18:14;94880.41;;;30.13;60.72
40245;BME280;25963;42.694;23.600;2023-06-26T11:20:40;94873.06;;;30.29;60.55
40245;BME280;25963;42.694;23.600;2023-06-26T11:23:07;94871.66;;;30.67;62.20
40245;BME280;25963;42.694;23.600;2023-06-26T11:25:36;94872.28;;;30.76;60.52
40245;BME280;25963;42.694;23.600;2023-06-26T11:28:03;94865.19;;;30.40;60.64
40245;BME280;25963;42.694;23.600;2023-06-26T11:30:29;94863.16;;;30.53;63.06
40245;BME280;25963;42.694;23.600;2023-06-26T11:33:05;94879.81;;;30.51;64.23
40245;BME280;25963;42.694;23.600;2023-06-26T11:35:31;94881.66;;;29.87;60.00
40245;BME280;25963;42.694;23.600;2023-06-26T11:37:58;94874.09;;;29.80;63.47
40245;BME280;25963;42.694;23.600;2023-06-26T11:40:26;94881.97;;;29.57;58.70
40245;BME280;25963;42.694;23.600;2023-06-26T11:42:57;94881.19;;;29.04;65.86
40245;BME280;25963;42.694;23.600;2023-06-26T11:45:23;94881.19;;;28.80;62.58
40245;BME280;25963;42.694;23.600;2023-06-26T11:47:48;94855.63;;;28.44;62.88
40245;BME280;25963;42.694;23.600;2023-06-26T11:50:17;94881.81;;;28.28;65.68
40245;BME280;25963;42.694;23.600;2023-06-26T11:52:44;94873.22;;;28.26;63.20
40245;BME280;25963;42.694;23.600;2023-06-26T11:55:10;94878.94;;;28.70;67.04
40245;BME280;25963;42.694;23.600;2023-06-26T11:57:38;94870.03;;;29.34;64.75
40245;BME280;25963;42.694;23.600;2023-06-26T12:00:16;94867.22;;;29.99;60.04
40245;BME280;25963;42.694;23.600;2023-06-26T12:02:43;94859.59;;;30.05;57.56
40245;BME280;25963;42.694;23.600;2023-06-26T12:05:10;94865.06;;;30.20;61.20
40245;BME280;25963;42.694;23.600;2023-06-26T12:07:36;94874.38;;;30.35;59.38
40245;BME280;25963;42.694;23.600;2023-06-26T12:10:04;94880.97;;;30.66;60.71
40245;BME280;25963;42.694;23.600;2023-06-26T12:12:30;94870.25;;;30.41;57.48
40245;BME280;25963;42.694;23.600;2023-06-26T12:14:56;94869.47;;;30.57;60.63
40245;BME280;25963;42.694;23.600;2023-06-26T12:17:23;94865.59;;;29.82;57.45
40245;BME280;25963;42.694;23.600;2023-06-26T12:19:50;94873.78;;;29.70;58.76
40245;BME280;25963;42.694;23.600;2023-06-26T12:22:17;94873.84;;;29.86;56.88
40245;BME280;25963;42.694;23.600;2023-06-26T12:24:44;94869.44;;;29.81;60.71
40245;BME280;25963;42.694;23.600;2023-06-26T12:27:14;94867.53;;;29.41;60.26
40245;BME280;25963;42.694;23.600;2023-06-26T12:29:45;94867.41;;;29.50;61.42
40245;BME280;25963;42.694;23.600;2023-06-26T12:32:12;94875.53;;;28.97;62.64
40245;BME280;25963;42.694;23.600;2023-06-26T12:34:38;94865.81;;;28.59;61.63
40245;BME280;25963;42.694;23.600;2023-06-26T12:39:54;94893.88;;;28.51;65.15
40245;BME280;25963;42.694;23.600;2023-06-26T12:42:24;94885.63;;;28.27;65.97
40245;BME280;25963;42.694;23.600;2023-06-26T12:44:50;94900.44;;;27.84;73.14
40245;BME280;25963;42.694;23.600;2023-06-26T12:47:17;94894.69;;;26.72;83.16
40245;BME280;25963;42.694;23.600;2023-06-26T12:49:50;94900.78;;;25.17;99.53
40245;BME280;25963;42.694;23.600;2023-06-26T12:52:17;94880.50;;;24.63;96.94
40245;BME280;25963;42.694;23.600;2023-06-26T12:54:45;94889.91;;;24.82;100.00
40245;BME280;25963;42.694;23.600;2023-06-26T12:57:12;94895.13;;;24.08;100.00
40245;BME280;25963;42.694;23.600;2023-06-26T12:59:39;94877.97;;;23.95;100.00